Time;durP1;ratioP1;P1;durP2;ratioP2;P2;SDS_P1;SDS_P2;PMS_P1;PMS_P2;Temp;Humidity;BMP_temperature;BMP_pressure;BME280_temperature;BME280_humidity;BME280_pressure;Samples;Min_cycle;Max_cycle;Signal;HPM_P1;HPM_P2
2024/01/19 00:00:20;;;;;;;14.88;10.55;;;;;;;;;;5074936;28;20292;-64
2024/01/19 00:02:47;;;;;;;16.30;10.13;;;;;;;;;;5075272;28;20197;-64
2024/01/19 00:05:14;;;;;;;15.82;11.20;;;;;;;;;;5075163;28;20276;-64
2024/01/19 00:07:43;;;;;;;15.95;11.68;;;;;;;;;;5075046;28;20604;-64
2024/01/19 00:10:10;;;;;;;16.63;10.95;;;;;;;;;;5074850;28;20185;-63
2024/01/19 00:12:37;;;;;;;15.68;11.32;;;;;;;;;;5074826;28;20197;-63
2024/01/19 00:15:06;;;;;;;15.00;10.55;;;;;;;;;;5074939;28;20276;-63
2024/01/19 00:17:33;;;;;;;15.60;11.18;;;;;;;;;;5074757;28;20579;-64
2024/01/19 00:20:00;;;;;;;16.65;10.93;;;;;;;;;;5074630;28;20223;-64
2024/01/19 00:22:27;;;;;;;16.38;10.88;;;;;;;;;;5074625;28;20201;-63
2024/01/19 00:24:55;;;;;;;12.93;10.85;;;;;;;;;;5075089;28;20231;-63
2024/01/19 00:27:22;;;;;;;16.27;10.98;;;;;;;;;;5074535;28;20283;-64
2024/01/19 00:29:49;;;;;;;17.52;10.63;;;;;;;;;;5073867;28;20622;-63
2024/01/19 00:32:16;;;;;;;13.55;10.38;;;;;;;;;;5074561;28;20285;-64
2024/01/19 00:34:43;;;;;;;12.18;9.82;;;;;;;;;;5074471;28;20196;-63
2024/01/19 00:37:10;;;;;;;15.32;11.30;;;;;;;;;;5074316;28;20470;-64
2024/01/19 00:39:37;;;;;;;17.92;10.88;;;;;;;;;;5074148;28;20279;-63
2024/01/19 00:42:05;;;;;;;14.93;11.57;;;;;;;;;;5074405;28;20191;-64
2024/01/19 00:44:32;;;;;;;15.63;9.98;;;;;;;;;;5074336;28;20279;-63
2024/01/19 00:46:59;;;;;;;13.75;9.90;;;;;;;;;;5074081;28;20194;-63
2024/01/19 00:49:26;;;;;;;12.70;9.43;;;;;;;;;;5073959;28;20672;-64
2024/01/19 00:51:53;;;;;;;13.30;10.05;;;;;;;;;;5074091;28;20545;-64
2024/01/19 00:54:20;;;;;;;13.32;10.40;;;;;;;;;;5073928;28;20192;-63
2024/01/19 00:56:47;;;;;;;14.68;10.05;;;;;;;;;;5073795;28;20191;-63
2024/01/19 00:59:15;;;;;;;12.00;9.60;;;;;;;;;;5074093;28;20189;-63
2024/01/19 01:01:44;;;;;;;20.90;9.90;;;;;;;;;;5074011;28;20280;-63
2024/01/19 01:04:12;;;;;;;17.88;10.35;;;;;;;;;;5073852;28;20193;-63
2024/01/19 01:06:39;;;;;;;13.48;9.93;;;;;;;;;;5073764;28;20196;-63
2024/01/19 01:09:07;;;;;;;17.60;10.15;;;;;;;;;;5073630;28;20192;-64
2024/01/19 01:11:34;;;;;;;12.07;9.13;;;;;;;;;;5074148;28;20193;-64
2024/01/19 01:14:01;;;;;;;14.02;10.13;;;;;;;;;;5073739;28;20279;-63
2024/01/19 01:16:30;;;;;;;13.30;8.88;;;;;;;;;;5073693;28;20272;-64
2024/01/19 01:18:57;;;;;;;12.52;8.77;;;;;;;;;;5073506;28;20255;-63
2024/01/19 01:21:25;;;;;;;15.65;8.85;;;;;;;;;;5073312;28;20213;-63
2024/01/19 01:23:52;;;;;;;15.35;9.20;;;;;;;;;;5073409;28;20193;-63
2024/01/19 01:26:18;;;;;;;15.07;9.80;;;;;;;;;;5073580;28;20617;-64
2024/01/19 01:28:45;;;;;;;14.40;11.02;;;;;;;;;;5073461;28;20193;-63
2024/01/19 01:31:12;;;;;;;14.38;9.93;;;;;;;;;;5073419;28;20281;-63
2024/01/19 01:33:40;;;;;;;10.45;8.98;;;;;;;;;;5073213;28;20641;-64
2024/01/19 01:36:07;;;;;;;11.95;9.25;;;;;;;;;;5073219;28;20280;-64
2024/01/19 01:38:34;;;;;;;14.85;8.82;;;;;;;;;;5073353;28;20315;-63
2024/01/19 01:41:01;;;;;;;12.95;8.60;;;;;;;;;;5073146;28;20189;-63
2024/01/19 01:43:28;;;;;;;11.25;8.60;;;;;;;;;;5073146;28;20671;-64
2024/01/19 01:45:55;;;;;;;12.43;9.30;;;;;;;;;;5073279;28;20217;-63
2024/01/19 01:48:23;;;;;;;11.98;9.60;;;;;;;;;;5073129;28;20636;-63
2024/01/19 01:50:51;;;;;;;15.65;9.73;;;;;;;;;;5073021;28;20271;-64
2024/01/19 01:53:19;;;;;;;11.05;8.63;;;;;;;;;;5073224;28;20312;-63
2024/01/19 01:55:46;;;;;;;11.07;8.57;;;;;;;;;;5072934;28;20667;-63
2024/01/19 01:58:14;;;;;;;14.23;8.95;;;;;;;;;;5073043;28;20225;-63
2024/01/19 02:00:41;;;;;;;9.65;7.90;;;;;;;;;;5073009;28;20196;-63
2024/01/19 02:03:08;;;;;;;10.38;8.45;;;;;;;;;;5072922;28;20561;-63
2024/01/19 02:05:35;;;;;;;11.45;8.45;;;;;;;;;;5073221;28;20193;-64
2024/01/19 02:08:04;;;;;;;10.90;8.90;;;;;;;;;;5073030;28;20284;-64
2024/01/19 02:10:31;;;;;;;12.95;8.52;;;;;;;;;;5072959;28;20300;-63
2024/01/19 02:12:58;;;;;;;12.60;7.93;;;;;;;;;;5072835;28;20272;-63
2024/01/19 02:15:26;;;;;;;11.38;7.80;;;;;;;;;;5072847;28;20280;-63
2024/01/19 02:17:53;;;;;;;11.32;7.38;;;;;;;;;;5072698;28;20573;-63
2024/01/19 02:20:20;;;;;;;9.77;7.45;;;;;;;;;;5073053;28;20623;-63
2024/01/19 02:22:48;;;;;;;15.55;9.20;;;;;;;;;;5072865;28;20193;-63
2024/01/19 02:25:16;;;;;;;11.25;7.60;;;;;;;;;;5072804;28;20200;-64
2024/01/19 02:27:43;;;;;;;10.07;7.38;;;;;;;;;;5072705;28;20288;-64
2024/01/19 02:30:11;;;;;;;11.43;7.60;;;;;;;;;;5072670;28;20544;-64
2024/01/19 02:32:38;;;;;;;11.25;7.93;;;;;;;;;;5072556;28;20292;-63
2024/01/19 02:35:05;;;;;;;16.33;8.10;;;;;;;;;;5072759;28;20319;-63
2024/01/19 02:37:32;;;;;;;9.45;7.55;;;;;;;;;;5072662;28;20213;-63
2024/01/19 02:40:00;;;;;;;8.77;7.20;;;;;;;;;;5072649;28;20279;-63
2024/01/19 02:42:28;;;;;;;11.13;7.68;;;;;;;;;;5072509;28;20197;-63
2024/01/19 02:44:55;;;;;;;9.40;7.68;;;;;;;;;;5072466;28;20284;-63
2024/01/19 02:47:22;;;;;;;10.20;7.85;;;;;;;;;;5072685;28;20247;-63
2024/01/19 02:49:49;;;;;;;10.50;7.28;;;;;;;;;;5072650;28;20275;-63
2024/01/19 02:52:16;;;;;;;9.88;7.13;;;;;;;;;;5073397;28;20227;-63
2024/01/19 02:54:43;;;;;;;9.25;7.00;;;;;;;;;;5076319;28;20544;-63
2024/01/19 02:57:09;;;;;;;9.95;7.00;;;;;;;;;;5076174;28;20276;-63
2024/01/19 02:59:38;;;;;;;9.73;7.78;;;;;;;;;;5076005;28;20227;-64
2024/01/19 03:02:05;;;;;;;11.10;8.48;;;;;;;;;;5076296;28;20635;-63
2024/01/19 03:04:32;;;;;;;8.23;6.25;;;;;;;;;;5076160;28;20189;-63
2024/01/19 03:06:59;;;;;;;14.25;7.32;;;;;;;;;;5076051;28;20279;-63
2024/01/19 03:09:26;;;;;;;9.63;6.88;;;;;;;;;;5076082;28;20196;-63
2024/01/19 03:11:53;;;;;;;9.75;7.10;;;;;;;;;;5075890;28;20701;-64
2024/01/19 03:14:20;;;;;;;10.82;7.30;;;;;;;;;;5075866;28;20243;-64
2024/01/19 03:16:48;;;;;;;9.45;7.55;;;;;;;;;;5076334;28;20284;-63
2024/01/19 03:19:16;;;;;;;11.50;7.57;;;;;;;;;;5075821;28;20313;-63
2024/01/19 03:21:43;;;;;;;10.10;7.47;;;;;;;;;;5075655;28;20224;-63
2024/01/19 03:24:10;;;;;;;8.80;7.43;;;;;;;;;;5075733;28;20189;-63
2024/01/19 03:26:39;;;;;;;12.20;6.80;;;;;;;;;;5075651;28;20247;-63
2024/01/19 03:29:06;;;;;;;12.18;8.02;;;;;;;;;;5075792;28;20280;-63
2024/01/19 03:31:33;;;;;;;10.45;7.60;;;;;;;;;;5075732;28;20275;-63
2024/01/19 03:34:01;;;;;;;10.40;8.20;;;;;;;;;;5075480;28;20719;-63
2024/01/19 03:36:28;;;;;;;15.07;8.05;;;;;;;;;;5075542;28;20386;-63
2024/01/19 03:38:55;;;;;;;11.05;7.75;;;;;;;;;;5075385;28;20223;-63
2024/01/19 03:41:22;;;;;;;8.30;6.85;;;;;;;;;;5075345;28;20186;-63
2024/01/19 03:43:49;;;;;;;9.23;6.43;;;;;;;;;;5075507;28;20189;-63
2024/01/19 03:46:16;;;;;;;9.88;7.32;;;;;;;;;;5075504;28;20220;-63
2024/01/19 03:48:43;;;;;;;11.77;7.95;;;;;;;;;;5075409;28;20220;-63
2024/01/19 03:51:12;;;;;;;8.82;6.43;;;;;;;;;;5075260;28;20300;-63
2024/01/19 03:53:38;;;;;;;11.50;7.47;;;;;;;;;;5075305;28;20284;-63
2024/01/19 03:56:05;;;;;;;10.15;6.40;;;;;;;;;;5075293;28;20185;-63
2024/01/19 03:58:32;;;;;;;8.40;6.75;;;;;;;;;;5075153;28;20243;-63
2024/01/19 04:00:59;;;;;;;10.50;6.75;;;;;;;;;;5075124;28;20296;-63
2024/01/19 04:03:26;;;;;;;10.52;7.20;;;;;;;;;;5075061;28;20204;-63
2024/01/19 04:05:53;;;;;;;13.63;7.70;;;;;;;;;;5075264;28;20276;-63
2024/01/19 04:08:21;;;;;;;10.60;7.18;;;;;;;;;;5074808;28;20215;-63
2024/01/19 04:10:48;;;;;;;13.18;8.07;;;;;;;;;;5074990;28;20280;-64
2024/01/19 04:13:15;;;;;;;9.88;8.15;;;;;;;;;;5074986;28;20196;-63
2024/01/19 04:15:42;;;;;;;14.50;8.98;;;;;;;;;;5074897;28;20280;-63
2024/01/19 04:18:09;;;;;;;11.07;9.15;;;;;;;;;;5074706;28;20295;-63
2024/01/19 04:20:36;;;;;;;9.25;7.90;;;;;;;;;;5074766;28;20231;-63
2024/01/19 04:23:03;;;;;;;13.30;7.90;;;;;;;;;;5074537;28;20207;-63
2024/01/19 04:25:32;;;;;;;9.48;7.10;;;;;;;;;;5074748;28;20620;-63
2024/01/19 04:27:59;;;;;;;10.45;7.32;;;;;;;;;;5074584;28;20276;-63
2024/01/19 04:30:26;;;;;;;10.73;7.70;;;;;;;;;;5074635;28;20185;-63
2024/01/19 04:32:52;;;;;;;11.35;7.28;;;;;;;;;;5074442;28;20597;-63
2024/01/19 04:35:19;;;;;;;7.95;6.97;;;;;;;;;;5074250;28;20189;-63
2024/01/19 04:37:46;;;;;;;10.10;7.15;;;;;;;;;;5074739;28;20200;-63
2024/01/19 04:40:13;;;;;;;11.18;7.43;;;;;;;;;;5074222;28;20621;-63
2024/01/19 04:42:41;;;;;;;10.68;7.30;;;;;;;;;;5074330;28;20283;-63
2024/01/19 04:45:09;;;;;;;8.30;7.40;;;;;;;;;;5074220;28;20225;-63
2024/01/19 04:47:36;;;;;;;9.88;7.55;;;;;;;;;;5074090;28;20288;-63
2024/01/19 04:50:03;;;;;;;8.20;6.57;;;;;;;;;;5074008;28;20279;-63
2024/01/19 04:52:30;;;;;;;13.38;7.95;;;;;;;;;;5074196;28;20192;-63
2024/01/19 04:54:57;;;;;;;12.48;8.15;;;;;;;;;;5074082;28;20286;-63
2024/01/19 04:57:26;;;;;;;14.05;7.72;;;;;;;;;;5073972;28;20195;-63
2024/01/19 04:59:54;;;;;;;10.02;7.90;;;;;;;;;;5073747;28;20263;-63
2024/01/19 05:02:21;;;;;;;11.63;6.78;;;;;;;;;;5073785;28;20189;-63
2024/01/19 05:04:48;;;;;;;12.32;7.00;;;;;;;;;;5073972;28;20272;-63
2024/01/19 05:07:15;;;;;;;10.23;6.45;;;;;;;;;;5073929;28;20556;-64
2024/01/19 05:09:42;;;;;;;8.93;6.72;;;;;;;;;;5073775;28;20206;-63
2024/01/19 05:12:09;;;;;;;9.32;5.95;;;;;;;;;;5073737;28;20625;-63
2024/01/19 05:14:36;;;;;;;16.27;7.90;;;;;;;;;;5073283;28;20193;-63
2024/01/19 05:17:05;;;;;;;11.40;6.60;;;;;;;;;;5073359;28;20191;-64
2024/01/19 05:19:32;;;;;;;7.93;7.15;;;;;;;;;;5073428;28;20306;-64
2024/01/19 05:21:58;;;;;;;10.27;6.90;;;;;;;;;;5073383;28;20732;-63
2024/01/19 05:24:25;;;;;;;14.00;6.88;;;;;;;;;;5073476;28;20641;-63
2024/01/19 05:26:52;;;;;;;9.57;6.65;;;;;;;;;;5073658;28;20729;-63
2024/01/19 05:29:19;;;;;;;7.20;6.28;;;;;;;;;;5073304;28;20203;-63
2024/01/19 05:31:46;;;;;;;7.57;5.75;;;;;;;;;;5073184;28;20189;-63
2024/01/19 05:34:15;;;;;;;8.10;6.07;;;;;;;;;;5073580;28;20234;-64
2024/01/19 05:36:42;;;;;;;9.20;5.35;;;;;;;;;;5073366;28;20552;-63
2024/01/19 05:39:09;;;;;;;5.78;5.28;;;;;;;;;;5073200;28;20209;-63
2024/01/19 05:41:36;;;;;;;7.40;5.25;;;;;;;;;;5073258;28;20284;-63
2024/01/19 05:44:03;;;;;;;8.48;6.30;;;;;;;;;;5072950;28;20185;-63
2024/01/19 05:46:30;;;;;;;8.55;5.82;;;;;;;;;;5073274;28;20280;-63
2024/01/19 05:48:57;;;;;;;5.88;4.65;;;;;;;;;;5072918;28;20780;-63
2024/01/19 05:51:25;;;;;;;6.85;4.88;;;;;;;;;;5072993;28;20280;-63
2024/01/19 05:53:52;;;;;;;7.10;4.80;;;;;;;;;;5073011;28;20193;-63
2024/01/19 05:56:19;;;;;;;5.60;4.30;;;;;;;;;;5072988;28;20272;-63
2024/01/19 05:58:46;;;;;;;6.57;4.88;;;;;;;;;;5072979;28;20710;-63
2024/01/19 06:01:13;;;;;;;4.47;4.07;;;;;;;;;;5073088;28;20263;-63
2024/01/19 06:03:40;;;;;;;5.00;4.10;;;;;;;;;;5073025;28;20189;-63
2024/01/19 06:06:07;;;;;;;6.63;3.78;;;;;;;;;;5072961;28;20604;-63
2024/01/19 06:08:35;;;;;;;7.90;5.53;;;;;;;;;;5072882;28;20276;-63
2024/01/19 06:11:02;;;;;;;9.25;3.70;;;;;;;;;;5072774;28;20618;-63
2024/01/19 06:13:29;;;;;;;6.25;4.38;;;;;;;;;;5072749;28;20281;-63
2024/01/19 06:15:56;;;;;;;5.90;3.42;;;;;;;;;;5072905;28;20223;-63
2024/01/19 06:18:23;;;;;;;6.53;4.15;;;;;;;;;;5072827;28;20264;-63
2024/01/19 06:20:51;;;;;;;5.95;5.05;;;;;;;;;;5072749;28;20221;-63
2024/01/19 06:23:18;;;;;;;6.32;4.05;;;;;;;;;;5072733;28;20186;-63
2024/01/19 06:25:46;;;;;;;8.75;4.45;;;;;;;;;;5072617;28;20220;-63
2024/01/19 06:28:13;;;;;;;4.60;3.13;;;;;;;;;;5075309;28;20597;-63
2024/01/19 06:30:42;;;;;;;5.00;3.47;;;;;;;;;;5076837;28;20201;-64
2024/01/19 06:33:09;;;;;;;4.70;3.05;;;;;;;;;;5076759;28;20224;-63
2024/01/19 06:35:36;;;;;;;6.05;3.30;;;;;;;;;;5076735;28;20281;-63
2024/01/19 06:38:04;;;;;;;5.47;3.10;;;;;;;;;;5076500;28;20652;-63
2024/01/19 06:40:31;;;;;;;5.40;3.80;;;;;;;;;;5076253;28;20224;-63
2024/01/19 06:42:59;;;;;;;3.63;3.33;;;;;;;;;;5076741;28;20293;-63
2024/01/19 06:45:26;;;;;;;7.28;3.60;;;;;;;;;;5076424;28;20673;-63
2024/01/19 06:47:53;;;;;;;5.45;2.83;;;;;;;;;;5076468;28;20276;-63
2024/01/19 06:50:20;;;;;;;5.20;3.08;;;;;;;;;;5076268;28;20185;-63
2024/01/19 06:52:46;;;;;;;4.88;3.30;;;;;;;;;;5076332;28;20196;-63
2024/01/19 06:55:13;;;;;;;5.28;2.95;;;;;;;;;;5076062;28;20556;-63
2024/01/19 06:57:40;;;;;;;6.10;3.22;;;;;;;;;;5076616;28;20196;-63
2024/01/19 07:00:09;;;;;;;5.82;3.42;;;;;;;;;;5076102;28;20290;-63
2024/01/19 07:02:36;;;;;;;5.03;2.65;;;;;;;;;;5076231;28;20189;-63
2024/01/19 07:05:03;;;;;;;6.60;3.78;;;;;;;;;;5076004;28;20197;-63
2024/01/19 07:07:30;;;;;;;4.40;3.30;;;;;;;;;;5075947;28;20193;-63
2024/01/19 07:09:57;;;;;;;6.85;4.85;;;;;;;;;;5076159;28;20243;-63
2024/01/19 07:12:24;;;;;;;4.03;3.00;;;;;;;;;;5076137;28;20243;-63
2024/01/19 07:14:51;;;;;;;4.75;2.92;;;;;;;;;;5076115;28;20645;-63
2024/01/19 07:17:19;;;;;;;6.25;2.70;;;;;;;;;;5076234;28;20280;-63
2024/01/19 07:19:46;;;;;;;7.82;2.90;;;;;;;;;;5075458;28;20213;-63
2024/01/19 07:22:13;;;;;;;4.43;2.63;;;;;;;;;;5074450;28;20280;-63
2024/01/19 07:24:40;;;;;;;4.85;2.70;;;;;;;;;;5074676;28;20217;-63
2024/01/19 07:27:07;;;;;;;2.70;2.50;;;;;;;;;;5074650;28;20277;-63
2024/01/19 07:29:33;;;;;;;4.20;2.70;;;;;;;;;;5074517;28;20571;-63
2024/01/19 07:32:00;;;;;;;3.60;2.97;;;;;;;;;;5074451;28;20288;-63
2024/01/19 07:34:29;;;;;;;6.68;3.35;;;;;;;;;;5074312;28;20272;-63
2024/01/19 07:36:56;;;;;;;6.20;4.15;;;;;;;;;;5074420;28;20296;-63
2024/01/19 07:39:24;;;;;;;3.83;2.78;;;;;;;;;;5073765;28;20213;-63
2024/01/19 07:41:51;;;;;;;3.10;2.80;;;;;;;;;;5074599;28;20197;-63
2024/01/19 07:44:18;;;;;;;6.35;3.70;;;;;;;;;;5074150;28;20199;-63
2024/01/19 07:46:45;;;;;;;4.90;3.47;;;;;;;;;;5074140;28;20193;-63
2024/01/19 07:49:12;;;;;;;3.95;3.50;;;;;;;;;;5073882;28;20197;-63
2024/01/19 07:51:41;;;;;;;4.93;4.50;;;;;;;;;;5074446;28;20196;-63
2024/01/19 07:54:08;;;;;;;5.88;4.38;;;;;;;;;;5074028;28;20225;-63
2024/01/19 07:56:35;;;;;;;10.13;4.03;;;;;;;;;;5074111;28;20244;-63
2024/01/19 07:59:02;;;;;;;6.07;3.75;;;;;;;;;;5073865;28;20219;-63
2024/01/19 08:01:29;;;;;;;6.82;3.72;;;;;;;;;;5073872;28;20625;-63
2024/01/19 08:03:56;;;;;;;4.82;3.15;;;;;;;;;;5074158;28;20292;-63
2024/01/19 08:06:23;;;;;;;3.85;3.25;;;;;;;;;;5073886;28;20276;-63
2024/01/19 08:08:51;;;;;;;3.92;3.58;;;;;;;;;;5073805;28;20295;-62
2024/01/19 08:11:18;;;;;;;3.60;3.03;;;;;;;;;;5073528;28;20288;-62
2024/01/19 08:13:45;;;;;;;4.43;3.55;;;;;;;;;;5073652;28;20192;-63
2024/01/19 08:16:12;;;;;;;6.15;3.78;;;;;;;;;;5073533;28;20627;-64
2024/01/19 08:18:39;;;;;;;6.65;3.00;;;;;;;;;;5073972;28;20617;-61
2024/01/19 08:21:07;;;;;;;6.63;4.00;;;;;;;;;;5040425;28;959387;-61
2024/01/19 08:23:34;;;;;;;4.10;3.42;;;;;;;;;;5074794;28;20200;-62
2024/01/19 08:26:03;;;;;;;5.47;4.97;;;;;;;;;;5074505;28;20283;-63
2024/01/19 08:28:30;;;;;;;4.43;4.03;;;;;;;;;;5074429;28;20196;-62
2024/01/19 08:30:57;;;;;;;5.85;3.70;;;;;;;;;;5074065;28;20197;-62
2024/01/19 08:33:25;;;;;;;8.80;5.78;;;;;;;;;;5074241;28;20185;-63
2024/01/19 08:35:52;;;;;;;4.90;3.97;;;;;;;;;;5074289;28;20608;-62
2024/01/19 08:38:19;;;;;;;4.97;2.80;;;;;;;;;;5074269;28;20309;-63
2024/01/19 08:40:46;;;;;;;5.55;3.45;;;;;;;;;;5074358;28;20223;-63
2024/01/19 08:43:14;;;;;;;5.60;3.47;;;;;;;;;;5073823;28;20276;-62
2024/01/19 08:45:41;;;;;;;4.32;3.90;;;;;;;;;;5074259;28;20272;-61
2024/01/19 08:48:08;;;;;;;4.57;4.05;;;;;;;;;;5074162;28;20228;-62
2024/01/19 08:50:35;;;;;;;3.40;3.10;;;;;;;;;;5073227;28;20189;-61
2024/01/19 08:53:03;;;;;;;6.20;3.60;;;;;;;;;;5074035;28;20185;-62
2024/01/19 08:55:30;;;;;;;6.47;3.95;;;;;;;;;;5073723;28;20190;-62
2024/01/19 08:57:57;;;;;;;7.88;3.67;;;;;;;;;;5073626;28;20281;-63
2024/01/19 09:00:25;;;;;;;3.78;3.10;;;;;;;;;;5073837;28;20305;-63
2024/01/19 09:02:52;;;;;;;3.38;3.00;;;;;;;;;;5073906;28;20201;-63
2024/01/19 09:05:19;;;;;;;5.75;3.05;;;;;;;;;;5073699;28;20270;-64
2024/01/19 09:07:46;;;;;;;3.97;3.00;;;;;;;;;;5073864;28;20623;-65
2024/01/19 09:10:13;;;;;;;8.50;4.20;;;;;;;;;;5073550;28;20280;-62
2024/01/19 09:12:40;;;;;;;3.70;3.40;;;;;;;;;;5073737;28;20216;-64
2024/01/19 09:15:07;;;;;;;4.35;4.00;;;;;;;;;;5073476;28;20284;-63
2024/01/19 09:17:35;;;;;;;4.65;3.40;;;;;;;;;;5073539;28;20276;-61
2024/01/19 09:20:04;;;;;;;6.35;4.10;;;;;;;;;;5073182;28;20233;-63
2024/01/19 09:22:31;;;;;;;8.32;4.38;;;;;;;;;;5073389;28;20556;-63
2024/01/19 09:24:58;;;;;;;6.13;4.65;;;;;;;;;;5073279;28;20283;-63
2024/01/19 09:27:25;;;;;;;5.43;4.45;;;;;;;;;;5073523;28;20220;-63
2024/01/19 09:29:52;;;;;;;5.75;3.95;;;;;;;;;;5073203;28;20192;-64
2024/01/19 09:32:19;;;;;;;11.32;4.78;;;;;;;;;;5073407;28;20221;-65
2024/01/19 09:34:47;;;;;;;5.13;4.60;;;;;;;;;;5073256;28;20615;-61
2024/01/19 09:37:14;;;;;;;9.27;4.15;;;;;;;;;;5073213;28;20280;-61
2024/01/19 09:39:41;;;;;;;8.48;4.57;;;;;;;;;;5072936;28;20248;-61
2024/01/19 09:42:09;;;;;;;5.47;3.90;;;;;;;;;;5073285;28;20696;-63
2024/01/19 09:44:37;;;;;;;4.18;3.78;;;;;;;;;;5073205;28;20561;-62
2024/01/19 09:47:17;;;;;;;7.85;4.70;;;;;;;;;;5073106;28;20627;-63
2024/01/19 09:49:51;;;;;;;6.90;3.78;;;;;;;;;;5072988;28;20193;-62
2024/01/19 09:52:25;;;;;;;7.43;3.55;;;;;;;;;;5072837;28;20686;-61
2024/01/19 09:54:52;;;;;;;11.27;4.10;;;;;;;;;;5073047;28;20228;-62
2024/01/19 09:57:19;;;;;;;4.55;3.90;;;;;;;;;;5072853;28;20276;-62
2024/01/19 09:59:46;;;;;;;4.70;4.00;;;;;;;;;;5072471;28;20730;-63
2024/01/19 10:02:14;;;;;;;6.43;4.25;;;;;;;;;;5072731;28;20614;-62
2024/01/19 10:04:41;;;;;;;7.07;4.10;;;;;;;;;;5072649;28;20189;-65
2024/01/19 10:07:08;;;;;;;5.68;4.90;;;;;;;;;;5072898;28;20244;-60
2024/01/19 10:09:36;;;;;;;10.48;4.97;;;;;;;;;;5072617;28;20193;-61
2024/01/19 10:12:03;;;;;;;6.50;5.60;;;;;;;;;;5071790;28;20457;-62
2024/01/19 10:14:30;;;;;;;7.45;5.25;;;;;;;;;;5072419;28;20279;-63
2024/01/19 10:16:57;;;;;;;5.95;5.00;;;;;;;;;;5072684;28;20281;-61
2024/01/19 10:19:26;;;;;;;6.28;4.75;;;;;;;;;;5072926;28;20189;-60
2024/01/19 10:21:53;;;;;;;5.20;4.70;;;;;;;;;;5072500;28;20225;-68
2024/01/19 10:24:20;;;;;;;8.73;4.80;;;;;;;;;;5072639;28;20216;-69
2024/01/19 10:26:53;;;;;;;7.07;4.95;;;;;;;;;;5072661;28;20224;-60
2024/01/19 10:29:21;;;;;;;9.88;5.10;;;;;;;;;;5072504;28;20251;-62
2024/01/19 10:31:48;;;;;;;6.78;4.65;;;;;;;;;;5072006;28;20242;-61
2024/01/19 10:34:19;;;;;;;7.05;4.93;;;;;;;;;;5072702;28;20280;-62
2024/01/19 10:36:46;;;;;;;5.78;4.28;;;;;;;;;;5072670;28;20277;-62
2024/01/19 10:39:17;;;;;;;6.95;4.88;;;;;;;;;;5072549;28;20625;-62
2024/01/19 10:41:44;;;;;;;11.18;5.35;;;;;;;;;;5072326;28;20307;-61
2024/01/19 10:44:13;;;;;;;8.90;5.10;;;;;;;;;;5072364;28;20683;-61
2024/01/19 10:46:40;;;;;;;6.82;4.95;;;;;;;;;;5072503;28;20185;-62
2024/01/19 10:49:07;;;;;;;5.70;4.47;;;;;;;;;;5072578;28;20193;-60
2024/01/19 10:51:36;;;;;;;5.70;5.03;;;;;;;;;;5072528;28;20281;-60
2024/01/19 10:54:03;;;;;;;6.78;4.90;;;;;;;;;;5072415;28;20185;-62
2024/01/19 10:56:30;;;;;;;7.03;5.15;;;;;;;;;;5072578;28;20212;-64
2024/01/19 10:59:10;;;;;;;11.63;5.57;;;;;;;;;;5072502;28;20306;-60
2024/01/19 11:01:38;;;;;;;6.05;5.25;;;;;;;;;;5072505;28;20223;-61
2024/01/19 11:04:07;;;;;;;5.82;5.28;;;;;;;;;;5072387;28;20189;-62
2024/01/19 11:06:36;;;;;;;6.63;4.93;;;;;;;;;;5072323;28;20190;-60
2024/01/19 11:09:04;;;;;;;5.43;4.88;;;;;;;;;;5072130;28;20718;-65
2024/01/19 11:11:34;;;;;;;8.20;5.50;;;;;;;;;;5072289;28;20204;-60
2024/01/19 11:14:03;;;;;;;7.70;5.25;;;;;;;;;;5074235;28;20220;-62
2024/01/19 11:16:32;;;;;;;11.07;5.05;;;;;;;;;;5075958;28;20689;-61
2024/01/19 11:19:01;;;;;;;7.00;4.85;;;;;;;;;;5075804;28;20280;-65
2024/01/19 11:21:28;;;;;;;6.80;5.50;;;;;;;;;;5075691;28;20217;-65
2024/01/19 11:23:55;;;;;;;9.02;4.32;;;;;;;;;;5075485;28;20196;-61
2024/01/19 11:26:25;;;;;;;7.35;5.63;;;;;;;;;;5075593;28;20624;-58
2024/01/19 11:28:54;;;;;;;7.88;4.25;;;;;;;;;;5075587;28;20200;-60
2024/01/19 11:31:22;;;;;;;7.32;4.40;;;;;;;;;;5075568;28;20197;-60
2024/01/19 11:33:52;;;;;;;7.53;5.30;;;;;;;;;;5075657;28;20220;-60
2024/01/19 11:36:35;;;;;;;4.97;4.47;;;;;;;;;;5075341;28;20702;-61
2024/01/19 11:39:05;;;;;;;9.05;5.10;;;;;;;;;;5075265;28;20203;-60
2024/01/19 11:41:48;;;;;;;9.40;4.90;;;;;;;;;;5075402;28;20314;-60
2024/01/19 11:44:33;;;;;;;9.45;5.03;;;;;;;;;;5075667;28;20555;-60
2024/01/19 11:47:00;;;;;;;5.85;5.15;;;;;;;;;;5075374;28;20709;-61
2024/01/19 11:49:46;;;;;;;9.20;6.03;;;;;;;;;;5075416;28;20195;-61
2024/01/19 11:52:28;;;;;;;7.43;4.88;;;;;;;;;;5075305;28;20696;-60
2024/01/19 11:54:57;;;;;;;5.82;4.72;;;;;;;;;;5074746;28;20199;-61
2024/01/19 11:57:25;;;;;;;6.22;4.90;;;;;;;;;;5075173;28;20225;-61
2024/01/19 11:59:53;;;;;;;9.13;5.35;;;;;;;;;;5074987;28;20284;-61
2024/01/19 12:02:21;;;;;;;8.35;5.40;;;;;;;;;;5075038;28;20719;-61
2024/01/19 12:04:48;;;;;;;9.55;5.43;;;;;;;;;;5074859;28;20720;-61
2024/01/19 12:07:17;;;;;;;6.60;4.57;;;;;;;;;;5074876;28;20276;-61
2024/01/19 12:09:44;;;;;;;8.50;5.97;;;;;;;;;;5074796;28;20193;-61
2024/01/19 12:12:13;;;;;;;9.90;5.95;;;;;;;;;;5074666;28;20196;-61
2024/01/19 12:14:40;;;;;;;11.13;8.05;;;;;;;;;;5074699;28;20680;-61
2024/01/19 12:17:07;;;;;;;8.20;4.85;;;;;;;;;;5074689;28;20326;-61
2024/01/19 12:19:34;;;;;;;8.85;5.75;;;;;;;;;;5074620;28;20272;-62
2024/01/19 12:22:03;;;;;;;7.70;4.65;;;;;;;;;;5074480;28;20217;-61
2024/01/19 12:24:30;;;;;;;5.25;4.20;;;;;;;;;;5073786;28;20217;-62
2024/01/19 12:26:57;;;;;;;6.97;4.82;;;;;;;;;;5074303;28;20247;-61
2024/01/19 12:29:32;;;;;;;5.60;4.97;;;;;;;;;;5074555;28;20220;-61
2024/01/19 12:32:09;;;;;;;4.85;4.30;;;;;;;;;;5074468;28;20189;-61
2024/01/19 12:34:36;;;;;;;5.68;4.70;;;;;;;;;;5074113;28;20195;-61
2024/01/19 12:37:03;;;;;;;5.15;4.20;;;;;;;;;;5074286;28;20538;-62
2024/01/19 12:39:30;;;;;;;6.38;5.70;;;;;;;;;;5074349;28;20280;-61
2024/01/19 12:42:00;;;;;;;10.63;5.80;;;;;;;;;;5074186;28;20227;-61
2024/01/19 12:44:27;;;;;;;6.03;4.72;;;;;;;;;;5074193;28;20185;-61
2024/01/19 12:46:59;;;;;;;7.53;4.88;;;;;;;;;;5074015;28;20280;-62
2024/01/19 12:49:26;;;;;;;10.48;4.63;;;;;;;;;;5074594;28;20270;-61
2024/01/19 12:51:53;;;;;;;9.32;4.70;;;;;;;;;;5074288;28;20198;-61
2024/01/19 12:54:20;;;;;;;6.40;4.47;;;;;;;;;;5074261;28;20561;-62
2024/01/19 12:56:48;;;;;;;7.10;4.90;;;;;;;;;;5074300;28;20262;-61
2024/01/19 12:59:16;;;;;;;10.73;4.47;;;;;;;;;;5073951;28;20189;-61
2024/01/19 13:01:43;;;;;;;6.60;4.60;;;;;;;;;;5073633;28;20307;-62
2024/01/19 13:04:12;;;;;;;11.15;5.15;;;;;;;;;;5073964;28;20279;-61
2024/01/19 13:06:41;;;;;;;6.13;4.30;;;;;;;;;;5073866;28;20201;-62
2024/01/19 13:09:10;;;;;;;4.32;3.90;;;;;;;;;;5073951;28;20181;-61
2024/01/19 13:11:37;;;;;;;9.05;5.03;;;;;;;;;;5073815;28;20189;-61
2024/01/19 13:14:04;;;;;;;15.52;4.45;;;;;;;;;;5073435;28;20678;-62
2024/01/19 13:16:31;;;;;;;9.15;4.75;;;;;;;;;;5073654;28;20280;-61
2024/01/19 13:19:02;;;;;;;5.70;4.65;;;;;;;;;;5073643;28;20786;-61
2024/01/19 13:21:31;;;;;;;6.47;4.60;;;;;;;;;;5073265;28;20684;-61
2024/01/19 13:23:58;;;;;;;5.38;4.72;;;;;;;;;;5073397;28;20212;-61
2024/01/19 13:26:26;;;;;;;5.00;4.40;;;;;;;;;;5073334;28;20190;-61
2024/01/19 13:28:53;;;;;;;5.38;4.22;;;;;;;;;;5073355;28;20200;-61
2024/01/19 13:31:20;;;;;;;10.43;5.60;;;;;;;;;;5073416;28;20197;-61
2024/01/19 13:33:47;;;;;;;8.45;3.58;;;;;;;;;;5073393;28;20190;-61
2024/01/19 13:36:15;;;;;;;4.97;4.38;;;;;;;;;;5072979;28;20587;-62
2024/01/19 13:38:43;;;;;;;5.80;4.80;;;;;;;;;;5073189;28;20326;-61
2024/01/19 13:41:11;;;;;;;8.73;4.95;;;;;;;;;;5073018;28;20300;-62
2024/01/19 13:43:38;;;;;;;9.80;3.70;;;;;;;;;;5073279;28;20280;-62
2024/01/19 13:46:05;;;;;;;7.28;5.13;;;;;;;;;;5073223;28;20566;-61
2024/01/19 13:48:32;;;;;;;6.20;4.18;;;;;;;;;;5073202;28;20189;-61
2024/01/19 13:50:59;;;;;;;7.25;4.80;;;;;;;;;;5073108;28;20194;-61
2024/01/19 13:53:26;;;;;;;5.35;4.20;;;;;;;;;;5073000;28;20185;-61
2024/01/19 13:55:55;;;;;;;14.57;4.70;;;;;;;;;;5072967;28;20189;-61
2024/01/19 13:58:22;;;;;;;5.35;4.18;;;;;;;;;;5073062;28;20201;-62
2024/01/19 14:00:49;;;;;;;6.18;4.10;;;;;;;;;;5072957;28;20700;-61
2024/01/19 14:03:17;;;;;;;8.40;3.78;;;;;;;;;;5073038;28;20189;-62
2024/01/19 14:05:46;;;;;;;8.98;4.88;;;;;;;;;;5073133;28;20199;-61
2024/01/19 14:08:14;;;;;;;6.20;4.82;;;;;;;;;;5072800;28;20221;-61
2024/01/19 14:10:41;;;;;;;7.00;4.15;;;;;;;;;;5073268;28;20200;-62
2024/01/19 14:13:09;;;;;;;4.32;3.65;;;;;;;;;;5072919;28;20193;-62
2024/01/19 14:15:36;;;;;;;5.38;4.18;;;;;;;;;;5072740;28;20712;-62
2024/01/19 14:18:03;;;;;;;9.93;3.80;;;;;;;;;;5072794;28;20810;-61
2024/01/19 14:20:30;;;;;;;6.15;4.88;;;;;;;;;;5072596;28;20312;-62
2024/01/19 14:22:56;;;;;;;4.55;4.20;;;;;;;;;;5072579;28;20221;-62
2024/01/19 14:25:23;;;;;;;5.90;5.30;;;;;;;;;;5072867;28;20275;-62
2024/01/19 14:27:50;;;;;;;5.00;4.60;;;;;;;;;;5073043;28;20204;-61
2024/01/19 14:30:19;;;;;;;9.60;4.75;;;;;;;;;;5072952;28;20181;-61
2024/01/19 14:32:49;;;;;;;7.65;4.30;;;;;;;;;;5072771;28;20280;-61
2024/01/19 14:35:16;;;;;;;4.65;4.13;;;;;;;;;;5072697;28;20192;-62
2024/01/19 14:37:43;;;;;;;7.80;4.53;;;;;;;;;;5072730;28;20278;-61
2024/01/19 14:40:10;;;;;;;9.98;4.55;;;;;;;;;;5072667;28;20228;-61